sensor_id;sensor_type;location;lat;lon;timestamp;P1;durP1;ratioP1;P2;durP2;ratioP2
3297;SDS011;1661;53.572;10.174;2023-06-10T00:00:20;7.50;;;5.43;;
3297;SDS011;1661;53.572;10.174;2023-06-10T00:02:49;5.20;;;4.40;;
3297;SDS011;1661;53.572;10.174;2023-06-10T00:05:15;7.30;;;5.00;;
3297;SDS011;1661;53.572;10.174;2023-06-10T00:07:45;6.73;;;4.47;;
3297;SDS011;1661;53.572;10.174;2023-06-10T00:10:13;6.33;;;3.90;;
3297;SDS011;1661;53.572;10.174;2023-06-10T00:12:40;7.60;;;5.10;;
3297;SDS011;1661;53.572;10.174;2023-06-10T00:15:09;7.17;;;4.60;;
3297;SDS011;1661;53.572;10.174;2023-06-10T00:17:36;12.17;;;6.10;;
3297;SDS011;1661;53.572;10.174;2023-06-10T00:20:06;10.00;;;5.57;;
3297;SDS011;1661;53.572;10.174;2023-06-10T00:22:36;4.60;;;4.20;;
3297;SDS011;1661;53.572;10.174;2023-06-10T00:25:03;10.33;;;5.23;;
3297;SDS011;1661;53.572;10.174;2023-06-10T00:27:31;6.30;;;4.57;;
3297;SDS011;1661;53.572;10.174;2023-06-10T00:30:00;11.00;;;5.80;;
3297;SDS011;1661;53.572;10.174;2023-06-10T00:32:29;11.43;;;5.37;;
3297;SDS011;1661;53.572;10.174;2023-06-10T00:34:56;6.27;;;5.23;;
3297;SDS011;1661;53.572;10.174;2023-06-10T00:37:24;11.17;;;5.63;;
3297;SDS011;1661;53.572;10.174;2023-06-10T00:39:50;4.83;;;4.33;;
3297;SDS011;1661;53.572;10.174;2023-06-10T00:42:17;8.23;;;5.20;;
3297;SDS011;1661;53.572;10.174;2023-06-10T00:44:44;10.53;;;5.33;;
3297;SDS011;1661;53.572;10.174;2023-06-10T00:47:11;13.77;;;5.70;;
3297;SDS011;1661;53.572;10.174;2023-06-10T00:49:38;6.77;;;5.10;;
3297;SDS011;1661;53.572;10.174;2023-06-10T00:52:05;9.07;;;4.30;;
3297;SDS011;1661;53.572;10.174;2023-06-10T00:54:36;6.07;;;4.70;;
3297;SDS011;1661;53.572;10.174;2023-06-10T00:57:04;6.30;;;4.27;;
3297;SDS011;1661;53.572;10.174;2023-06-10T00:59:31;9.93;;;5.73;;
3297;SDS011;1661;53.572;10.174;2023-06-10T01:01:58;4.33;;;3.67;;
3297;SDS011;1661;53.572;10.174;2023-06-10T01:04:27;6.60;;;3.70;;
3297;SDS011;1661;53.572;10.174;2023-06-10T01:06:54;6.73;;;4.10;;
3297;SDS011;1661;53.572;10.174;2023-06-10T01:09:32;3.90;;;3.50;;
3297;SDS011;1661;53.572;10.174;2023-06-10T01:12:23;4.37;;;3.97;;
3297;SDS011;1661;53.572;10.174;2023-06-10T01:14:55;5.87;;;3.67;;
3297;SDS011;1661;53.572;10.174;2023-06-10T01:17:22;5.20;;;4.00;;
3297;SDS011;1661;53.572;10.174;2023-06-10T01:19:55;5.67;;;3.67;;
3297;SDS011;1661;53.572;10.174;2023-06-10T01:22:24;5.00;;;3.60;;
3297;SDS011;1661;53.572;10.174;2023-06-10T01:24:53;8.90;;;3.93;;
3297;SDS011;1661;53.572;10.174;2023-06-10T01:27:23;4.20;;;3.53;;
3297;SDS011;1661;53.572;10.174;2023-06-10T01:29:54;4.23;;;3.83;;
3297;SDS011;1661;53.572;10.174;2023-06-10T01:32:28;8.23;;;4.60;;
3297;SDS011;1661;53.572;10.174;2023-06-10T01:34:59;4.87;;;4.40;;
3297;SDS011;1661;53.572;10.174;2023-06-10T01:37:29;7.27;;;3.83;;
3297;SDS011;1661;53.572;10.174;2023-06-10T01:39:58;7.47;;;4.00;;
3297;SDS011;1661;53.572;10.174;2023-06-10T01:42:26;6.50;;;3.90;;
3297;SDS011;1661;53.572;10.174;2023-06-10T01:44:54;6.17;;;4.17;;
3297;SDS011;1661;53.572;10.174;2023-06-10T01:47:21;6.17;;;4.57;;
3297;SDS011;1661;53.572;10.174;2023-06-10T01:49:48;9.70;;;3.90;;
3297;SDS011;1661;53.572;10.174;2023-06-10T01:52:15;6.37;;;4.03;;
3297;SDS011;1661;53.572;10.174;2023-06-10T01:54:43;5.33;;;4.10;;
3297;SDS011;1661;53.572;10.174;2023-06-10T01:57:10;14.07;;;4.17;;
3297;SDS011;1661;53.572;10.174;2023-06-10T01:59:37;6.23;;;3.83;;
3297;SDS011;1661;53.572;10.174;2023-06-10T02:02:04;4.60;;;3.97;;
3297;SDS011;1661;53.572;10.174;2023-06-10T02:04:31;6.80;;;3.10;;
3297;SDS011;1661;53.572;10.174;2023-06-10T02:06:57;3.90;;;3.50;;
3297;SDS011;1661;53.572;10.174;2023-06-10T02:09:28;4.63;;;3.93;;
3297;SDS011;1661;53.572;10.174;2023-06-10T02:11:57;6.90;;;4.20;;
3297;SDS011;1661;53.572;10.174;2023-06-10T02:14:23;4.10;;;3.67;;
3297;SDS011;1661;53.572;10.174;2023-06-10T02:16:50;8.30;;;4.40;;
3297;SDS011;1661;53.572;10.174;2023-06-10T02:19:21;7.73;;;4.07;;
3297;SDS011;1661;53.572;10.174;2023-06-10T02:21:48;4.30;;;3.50;;
3297;SDS011;1661;53.572;10.174;2023-06-10T02:24:15;3.50;;;2.97;;
3297;SDS011;1661;53.572;10.174;2023-06-10T02:26:42;6.33;;;3.37;;
3297;SDS011;1661;53.572;10.174;2023-06-10T02:29:11;4.00;;;2.97;;
3297;SDS011;1661;53.572;10.174;2023-06-10T02:31:38;4.77;;;3.00;;
3297;SDS011;1661;53.572;10.174;2023-06-10T02:34:06;4.20;;;3.30;;
3297;SDS011;1661;53.572;10.174;2023-06-10T02:36:32;5.87;;;3.40;;
3297;SDS011;1661;53.572;10.174;2023-06-10T02:39:00;4.53;;;3.10;;
3297;SDS011;1661;53.572;10.174;2023-06-10T02:41:27;7.03;;;3.90;;
3297;SDS011;1661;53.572;10.174;2023-06-10T02:43:54;4.00;;;3.23;;
3297;SDS011;1661;53.572;10.174;2023-06-10T02:46:22;5.40;;;2.70;;
3297;SDS011;1661;53.572;10.174;2023-06-10T02:48:49;4.43;;;3.30;;
3297;SDS011;1661;53.572;10.174;2023-06-10T02:51:17;5.30;;;2.80;;
3297;SDS011;1661;53.572;10.174;2023-06-10T02:53:43;4.93;;;3.47;;
3297;SDS011;1661;53.572;10.174;2023-06-10T02:56:10;7.70;;;3.40;;
3297;SDS011;1661;53.572;10.174;2023-06-10T02:58:37;3.77;;;3.30;;
3297;SDS011;1661;53.572;10.174;2023-06-10T03:01:04;6.33;;;4.00;;
3297;SDS011;1661;53.572;10.174;2023-06-10T03:03:32;3.87;;;3.57;;
3297;SDS011;1661;53.572;10.174;2023-06-10T03:06:00;5.10;;;3.50;;
3297;SDS011;1661;53.572;10.174;2023-06-10T03:08:27;10.77;;;3.70;;
3297;SDS011;1661;53.572;10.174;2023-06-10T03:10:54;4.50;;;2.60;;
3297;SDS011;1661;53.572;10.174;2023-06-10T03:13:21;4.27;;;2.90;;
3297;SDS011;1661;53.572;10.174;2023-06-10T03:15:49;3.77;;;2.50;;
3297;SDS011;1661;53.572;10.174;2023-06-10T03:18:16;5.20;;;2.83;;
3297;SDS011;1661;53.572;10.174;2023-06-10T03:20:44;2.63;;;2.43;;
3297;SDS011;1661;53.572;10.174;2023-06-10T03:23:11;6.20;;;2.80;;
3297;SDS011;1661;53.572;10.174;2023-06-10T03:25:38;7.50;;;3.40;;
3297;SDS011;1661;53.572;10.174;2023-06-10T03:28:04;5.40;;;2.83;;
3297;SDS011;1661;53.572;10.174;2023-06-10T03:30:31;6.47;;;2.90;;
3297;SDS011;1661;53.572;10.174;2023-06-10T03:32:58;3.50;;;3.20;;
3297;SDS011;1661;53.572;10.174;2023-06-10T03:35:25;10.63;;;3.70;;
3297;SDS011;1661;53.572;10.174;2023-06-10T03:37:53;5.67;;;2.73;;
3297;SDS011;1661;53.572;10.174;2023-06-10T03:40:20;4.30;;;3.00;;
3297;SDS011;1661;53.572;10.174;2023-06-10T03:42:46;5.83;;;3.33;;
3297;SDS011;1661;53.572;10.174;2023-06-10T03:45:13;7.37;;;3.03;;
3297;SDS011;1661;53.572;10.174;2023-06-10T03:47:40;3.67;;;2.57;;
3297;SDS011;1661;53.572;10.174;2023-06-10T03:50:08;5.77;;;2.70;;
3297;SDS011;1661;53.572;10.174;2023-06-10T03:52:35;9.50;;;3.00;;
3297;SDS011;1661;53.572;10.174;2023-06-10T03:55:06;3.17;;;2.50;;
3297;SDS011;1661;53.572;10.174;2023-06-10T03:57:33;5.43;;;3.07;;
3297;SDS011;1661;53.572;10.174;2023-06-10T04:00:00;5.03;;;2.50;;
3297;SDS011;1661;53.572;10.174;2023-06-10T04:02:31;4.60;;;2.50;;
3297;SDS011;1661;53.572;10.174;2023-06-10T04:04:59;3.73;;;2.30;;
3297;SDS011;1661;53.572;10.174;2023-06-10T04:07:26;4.63;;;2.87;;
3297;SDS011;1661;53.572;10.174;2023-06-10T04:09:53;4.83;;;3.37;;
3297;SDS011;1661;53.572;10.174;2023-06-10T04:12:21;11.00;;;2.97;;
3297;SDS011;1661;53.572;10.174;2023-06-10T04:14:48;3.80;;;2.60;;
3297;SDS011;1661;53.572;10.174;2023-06-10T04:17:16;3.73;;;2.87;;
3297;SDS011;1661;53.572;10.174;2023-06-10T04:19:43;5.20;;;2.70;;
3297;SDS011;1661;53.572;10.174;2023-06-10T04:22:10;3.73;;;2.60;;
3297;SDS011;1661;53.572;10.174;2023-06-10T04:24:37;6.33;;;2.93;;
3297;SDS011;1661;53.572;10.174;2023-06-10T04:27:04;9.90;;;2.07;;
3297;SDS011;1661;53.572;10.174;2023-06-10T04:29:33;3.60;;;3.20;;
3297;SDS011;1661;53.572;10.174;2023-06-10T04:32:00;5.50;;;2.73;;
3297;SDS011;1661;53.572;10.174;2023-06-10T04:34:27;4.23;;;2.57;;
3297;SDS011;1661;53.572;10.174;2023-06-10T04:36:53;5.70;;;2.53;;
3297;SDS011;1661;53.572;10.174;2023-06-10T04:39:20;3.10;;;1.93;;
3297;SDS011;1661;53.572;10.174;2023-06-10T04:41:48;3.80;;;3.03;;
3297;SDS011;1661;53.572;10.174;2023-06-10T04:44:14;5.00;;;3.23;;
3297;SDS011;1661;53.572;10.174;2023-06-10T04:46:43;2.80;;;2.40;;
3297;SDS011;1661;53.572;10.174;2023-06-10T04:49:10;6.63;;;3.10;;
3297;SDS011;1661;53.572;10.174;2023-06-10T04:51:39;2.90;;;2.17;;
3297;SDS011;1661;53.572;10.174;2023-06-10T04:54:06;6.60;;;3.83;;
3297;SDS011;1661;53.572;10.174;2023-06-10T04:56:33;3.03;;;1.67;;
3297;SDS011;1661;53.572;10.174;2023-06-10T04:59:00;2.57;;;2.37;;
3297;SDS011;1661;53.572;10.174;2023-06-10T05:01:26;4.43;;;3.30;;
3297;SDS011;1661;53.572;10.174;2023-06-10T05:03:55;12.60;;;4.00;;
3297;SDS011;1661;53.572;10.174;2023-06-10T05:06:21;8.07;;;2.87;;
3297;SDS011;1661;53.572;10.174;2023-06-10T05:08:48;10.93;;;3.43;;
3297;SDS011;1661;53.572;10.174;2023-06-10T05:11:15;7.30;;;3.27;;
3297;SDS011;1661;53.572;10.174;2023-06-10T05:13:42;7.30;;;3.83;;
3297;SDS011;1661;53.572;10.174;2023-06-10T05:16:09;5.83;;;2.53;;
3297;SDS011;1661;53.572;10.174;2023-06-10T05:18:36;5.40;;;2.40;;
3297;SDS011;1661;53.572;10.174;2023-06-10T05:21:04;8.57;;;3.10;;
3297;SDS011;1661;53.572;10.174;2023-06-10T05:23:31;7.83;;;2.77;;
3297;SDS011;1661;53.572;10.174;2023-06-10T05:25:58;9.93;;;3.00;;
3297;SDS011;1661;53.572;10.174;2023-06-10T05:28:25;9.10;;;3.00;;
3297;SDS011;1661;53.572;10.174;2023-06-10T05:30:51;8.90;;;2.90;;
3297;SDS011;1661;53.572;10.174;2023-06-10T05:33:18;4.53;;;2.83;;
3297;SDS011;1661;53.572;10.174;2023-06-10T05:35:45;7.80;;;2.60;;
3297;SDS011;1661;53.572;10.174;2023-06-10T05:38:13;7.20;;;3.07;;
3297;SDS011;1661;53.572;10.174;2023-06-10T05:40:40;9.00;;;3.20;;
3297;SDS011;1661;53.572;10.174;2023-06-10T05:43:07;12.53;;;3.70;;
3297;SDS011;1661;53.572;10.174;2023-06-10T05:45:34;6.20;;;3.57;;
3297;SDS011;1661;53.572;10.174;2023-06-10T05:48:01;13.30;;;3.33;;
3297;SDS011;1661;53.572;10.174;2023-06-10T05:50:28;11.80;;;2.87;;
3297;SDS011;1661;53.572;10.174;2023-06-10T05:52:55;4.53;;;2.90;;
3297;SDS011;1661;53.572;10.174;2023-06-10T05:55:24;6.03;;;3.07;;
3297;SDS011;1661;53.572;10.174;2023-06-10T05:57:57;4.93;;;2.80;;
3297;SDS011;1661;53.572;10.174;2023-06-10T06:00:24;7.70;;;3.10;;
3297;SDS011;1661;53.572;10.174;2023-06-10T06:02:51;11.33;;;3.40;;
3297;SDS011;1661;53.572;10.174;2023-06-10T06:05:19;11.90;;;4.03;;
3297;SDS011;1661;53.572;10.174;2023-06-10T06:07:46;14.00;;;3.47;;
3297;SDS011;1661;53.572;10.174;2023-06-10T06:10:12;20.13;;;3.33;;
3297;SDS011;1661;53.572;10.174;2023-06-10T06:12:40;10.57;;;3.13;;
3297;SDS011;1661;53.572;10.174;2023-06-10T06:15:08;7.73;;;2.70;;
3297;SDS011;1661;53.572;10.174;2023-06-10T06:17:36;7.17;;;3.07;;
3297;SDS011;1661;53.572;10.174;2023-06-10T06:20:03;9.53;;;3.70;;
3297;SDS011;1661;53.572;10.174;2023-06-10T06:22:30;5.37;;;3.00;;
3297;SDS011;1661;53.572;10.174;2023-06-10T06:24:57;8.10;;;3.90;;
3297;SDS011;1661;53.572;10.174;2023-06-10T06:27:24;7.90;;;3.63;;
3297;SDS011;1661;53.572;10.174;2023-06-10T06:29:52;6.60;;;3.33;;
3297;SDS011;1661;53.572;10.174;2023-06-10T06:32:19;8.57;;;3.10;;
3297;SDS011;1661;53.572;10.174;2023-06-10T06:34:47;4.57;;;2.53;;
3297;SDS011;1661;53.572;10.174;2023-06-10T06:37:14;7.37;;;3.13;;
3297;SDS011;1661;53.572;10.174;2023-06-10T06:39:41;9.07;;;3.70;;
3297;SDS011;1661;53.572;10.174;2023-06-10T06:42:08;8.50;;;3.50;;
3297;SDS011;1661;53.572;10.174;2023-06-10T06:44:35;5.93;;;3.40;;
3297;SDS011;1661;53.572;10.174;2023-06-10T06:47:03;5.30;;;2.67;;
3297;SDS011;1661;53.572;10.174;2023-06-10T06:49:30;8.80;;;3.90;;
3297;SDS011;1661;53.572;10.174;2023-06-10T06:51:57;7.80;;;3.27;;
3297;SDS011;1661;53.572;10.174;2023-06-10T06:54:23;8.93;;;3.43;;
3297;SDS011;1661;53.572;10.174;2023-06-10T06:56:50;8.23;;;3.47;;
3297;SDS011;1661;53.572;10.174;2023-06-10T06:59:17;2.63;;;2.43;;
3297;SDS011;1661;53.572;10.174;2023-06-10T07:01:44;4.23;;;2.60;;
3297;SDS011;1661;53.572;10.174;2023-06-10T07:04:14;10.83;;;4.00;;
3297;SDS011;1661;53.572;10.174;2023-06-10T07:06:41;10.07;;;3.80;;
3297;SDS011;1661;53.572;10.174;2023-06-10T07:09:08;9.10;;;4.60;;
3297;SDS011;1661;53.572;10.174;2023-06-10T07:11:35;8.93;;;3.53;;
3297;SDS011;1661;53.572;10.174;2023-06-10T07:14:02;5.00;;;3.17;;
3297;SDS011;1661;53.572;10.174;2023-06-10T07:16:28;5.00;;;3.90;;
3297;SDS011;1661;53.572;10.174;2023-06-10T07:18:55;6.03;;;3.13;;
3297;SDS011;1661;53.572;10.174;2023-06-10T07:21:24;7.63;;;3.30;;
3297;SDS011;1661;53.572;10.174;2023-06-10T07:23:53;6.00;;;3.03;;
3297;SDS011;1661;53.572;10.174;2023-06-10T07:26:21;5.73;;;3.90;;
3297;SDS011;1661;53.572;10.174;2023-06-10T07:28:48;6.90;;;3.80;;
3297;SDS011;1661;53.572;10.174;2023-06-10T07:31:15;10.23;;;4.23;;
3297;SDS011;1661;53.572;10.174;2023-06-10T07:33:41;10.60;;;4.10;;
3297;SDS011;1661;53.572;10.174;2023-06-10T07:36:09;12.37;;;4.57;;
3297;SDS011;1661;53.572;10.174;2023-06-10T07:38:37;12.23;;;3.63;;
3297;SDS011;1661;53.572;10.174;2023-06-10T07:41:06;4.67;;;3.30;;
3297;SDS011;1661;53.572;10.174;2023-06-10T07:43:32;11.47;;;4.63;;
3297;SDS011;1661;53.572;10.174;2023-06-10T07:45:59;5.87;;;2.80;;
3297;SDS011;1661;53.572;10.174;2023-06-10T07:48:26;8.60;;;3.37;;
3297;SDS011;1661;53.572;10.174;2023-06-10T07:50:53;7.13;;;4.07;;
3297;SDS011;1661;53.572;10.174;2023-06-10T07:53:20;13.63;;;3.90;;
3297;SDS011;1661;53.572;10.174;2023-06-10T07:55:48;8.13;;;4.40;;
3297;SDS011;1661;53.572;10.174;2023-06-10T07:58:15;9.03;;;4.53;;
3297;SDS011;1661;53.572;10.174;2023-06-10T08:00:42;6.23;;;3.57;;
3297;SDS011;1661;53.572;10.174;2023-06-10T08:03:08;6.60;;;3.67;;
3297;SDS011;1661;53.572;10.174;2023-06-10T08:05:35;12.57;;;4.20;;
3297;SDS011;1661;53.572;10.174;2023-06-10T08:08:02;5.67;;;3.47;;
3297;SDS011;1661;53.572;10.174;2023-06-10T08:10:30;4.17;;;3.07;;
3297;SDS011;1661;53.572;10.174;2023-06-10T08:12:58;9.93;;;3.27;;
3297;SDS011;1661;53.572;10.174;2023-06-10T08:15:25;6.60;;;4.10;;
3297;SDS011;1661;53.572;10.174;2023-06-10T08:17:51;4.77;;;3.00;;
3297;SDS011;1661;53.572;10.174;2023-06-10T08:20:18;9.90;;;4.30;;
3297;SDS011;1661;53.572;10.174;2023-06-10T08:22:45;3.50;;;3.20;;
3297;SDS011;1661;53.572;10.174;2023-06-10T08:25:12;9.33;;;3.90;;
3297;SDS011;1661;53.572;10.174;2023-06-10T08:27:38;11.33;;;4.53;;
3297;SDS011;1661;53.572;10.174;2023-06-10T08:30:07;10.43;;;4.53;;
3297;SDS011;1661;53.572;10.174;2023-06-10T08:32:35;8.20;;;3.40;;
3297;SDS011;1661;53.572;10.174;2023-06-10T08:35:04;7.43;;;3.77;;
3297;SDS011;1661;53.572;10.174;2023-06-10T08:37:31;7.60;;;3.67;;
3297;SDS011;1661;53.572;10.174;2023-06-10T08:39:57;11.00;;;5.07;;
3297;SDS011;1661;53.572;10.174;2023-06-10T08:42:25;6.27;;;4.07;;
3297;SDS011;1661;53.572;10.174;2023-06-10T08:44:54;8.67;;;3.60;;
3297;SDS011;1661;53.572;10.174;2023-06-10T08:47:25;10.37;;;3.63;;
3297;SDS011;1661;53.572;10.174;2023-06-10T08:49:56;7.90;;;4.00;;
3297;SDS011;1661;53.572;10.174;2023-06-10T08:52:28;9.73;;;4.57;;
3297;SDS011;1661;53.572;10.174;2023-06-10T08:55:03;10.20;;;4.10;;
3297;SDS011;1661;53.572;10.174;2023-06-10T08:57:35;21.50;;;4.40;;
3297;SDS011;1661;53.572;10.174;2023-06-10T09:00:03;14.43;;;5.70;;
3297;SDS011;1661;53.572;10.174;2023-06-10T09:02:32;12.93;;;5.00;;
3297;SDS011;1661;53.572;10.174;2023-06-10T09:05:01;13.77;;;4.00;;
3297;SDS011;1661;53.572;10.174;2023-06-10T09:07:29;7.87;;;3.57;;
3297;SDS011;1661;53.572;10.174;2023-06-10T09:09:59;8.00;;;4.47;;
3297;SDS011;1661;53.572;10.174;2023-06-10T09:12:29;10.47;;;4.17;;
3297;SDS011;1661;53.572;10.174;2023-06-10T09:14:55;12.80;;;4.33;;
3297;SDS011;1661;53.572;10.174;2023-06-10T09:17:22;16.47;;;4.47;;
3297;SDS011;1661;53.572;10.174;2023-06-10T09:19:51;14.93;;;4.10;;
3297;SDS011;1661;53.572;10.174;2023-06-10T09:22:20;9.40;;;3.83;;
3297;SDS011;1661;53.572;10.174;2023-06-10T09:24:47;10.30;;;4.20;;
3297;SDS011;1661;53.572;10.174;2023-06-10T09:27:14;4.70;;;4.30;;
3297;SDS011;1661;53.572;10.174;2023-06-10T09:29:51;8.77;;;4.30;;
3297;SDS011;1661;53.572;10.174;2023-06-10T09:32:18;7.63;;;4.50;;
3297;SDS011;1661;53.572;10.174;2023-06-10T09:34:46;8.37;;;3.93;;
3297;SDS011;1661;53.572;10.174;2023-06-10T09:37:14;14.10;;;5.07;;
3297;SDS011;1661;53.572;10.174;2023-06-10T09:39:52;8.27;;;4.60;;
3297;SDS011;1661;53.572;10.174;2023-06-10T09:42:29;10.60;;;4.90;;
3297;SDS011;1661;53.572;10.174;2023-06-10T09:45:00;16.97;;;4.47;;
3297;SDS011;1661;53.572;10.174;2023-06-10T09:47:27;19.17;;;4.37;;
3297;SDS011;1661;53.572;10.174;2023-06-10T09:49:54;16.43;;;4.60;;
3297;SDS011;1661;53.572;10.174;2023-06-10T09:52:23;21.37;;;5.67;;
3297;SDS011;1661;53.572;10.174;2023-06-10T09:54:50;13.40;;;4.67;;
3297;SDS011;1661;53.572;10.174;2023-06-10T09:57:18;7.80;;;4.03;;
3297;SDS011;1661;53.572;10.174;2023-06-10T09:59:45;6.70;;;3.73;;
3297;SDS011;1661;53.572;10.174;2023-06-10T10:02:15;8.10;;;5.07;;
3297;SDS011;1661;53.572;10.174;2023-06-10T10:04:43;7.93;;;4.80;;
3297;SDS011;1661;53.572;10.174;2023-06-10T10:07:10;6.27;;;5.00;;
3297;SDS011;1661;53.572;10.174;2023-06-10T10:09:39;5.40;;;3.97;;
3297;SDS011;1661;53.572;10.174;2023-06-10T10:12:07;10.60;;;5.63;;
3297;SDS011;1661;53.572;10.174;2023-06-10T10:14:37;17.30;;;5.33;;
3297;SDS011;1661;53.572;10.174;2023-06-10T10:17:05;8.00;;;4.03;;
3297;SDS011;1661;53.572;10.174;2023-06-10T10:19:37;10.00;;;5.00;;
3297;SDS011;1661;53.572;10.174;2023-06-10T10:22:14;7.60;;;3.83;;
3297;SDS011;1661;53.572;10.174;2023-06-10T10:24:48;8.90;;;4.80;;
3297;SDS011;1661;53.572;10.174;2023-06-10T10:27:17;8.53;;;5.03;;
3297;SDS011;1661;53.572;10.174;2023-06-10T10:29:47;7.40;;;5.70;;
3297;SDS011;1661;53.572;10.174;2023-06-10T10:32:17;5.60;;;4.37;;
3297;SDS011;1661;53.572;10.174;2023-06-10T10:34:48;9.50;;;5.07;;
3297;SDS011;1661;53.572;10.174;2023-06-10T10:37:19;14.93;;;5.10;;
3297;SDS011;1661;53.572;10.174;2023-06-10T10:39:48;8.40;;;5.00;;
3297;SDS011;1661;53.572;10.174;2023-06-10T10:42:15;4.90;;;4.50;;
3297;SDS011;1661;53.572;10.174;2023-06-10T10:44:43;6.43;;;4.17;;
3297;SDS011;1661;53.572;10.174;2023-06-10T10:47:11;8.10;;;6.20;;
3297;SDS011;1661;53.572;10.174;2023-06-10T10:49:43;7.40;;;4.50;;
3297;SDS011;1661;53.572;10.174;2023-06-10T10:52:12;9.60;;;5.47;;
3297;SDS011;1661;53.572;10.174;2023-06-10T10:54:43;10.70;;;5.00;;
3297;SDS011;1661;53.572;10.174;2023-06-10T10:57:17;12.50;;;5.80;;
3297;SDS011;1661;53.572;10.174;2023-06-10T11:02:33;11.10;;;5.50;;
3297;SDS011;1661;53.572;10.174;2023-06-10T11:05:03;8.20;;;5.00;;
3297;SDS011;1661;53.572;10.174;2023-06-10T11:07:31;6.20;;;4.93;;
3297;SDS011;1661;53.572;10.174;2023-06-10T11:09:59;7.40;;;5.07;;
3297;SDS011;1661;53.572;10.174;2023-06-10T11:12:40;9.47;;;6.20;;
3297;SDS011;1661;53.572;10.174;2023-06-10T11:15:08;14.30;;;5.97;;
3297;SDS011;1661;53.572;10.174;2023-06-10T11:17:35;5.57;;;4.50;;
3297;SDS011;1661;53.572;10.174;2023-06-10T11:20:02;6.33;;;5.70;;
3297;SDS011;1661;53.572;10.174;2023-06-10T11:22:30;7.00;;;5.57;;
3297;SDS011;1661;53.572;10.174;2023-06-10T11:24:57;10.60;;;5.83;;
3297;SDS011;1661;53.572;10.174;2023-06-10T11:27:24;9.83;;;5.67;;
3297;SDS011;1661;53.572;10.174;2023-06-10T11:29:59;9.30;;;6.20;;
3297;SDS011;1661;53.572;10.174;2023-06-10T11:32:45;19.50;;;6.00;;
3297;SDS011;1661;53.572;10.174;2023-06-10T11:35:16;7.20;;;6.20;;
3297;SDS011;1661;53.572;10.174;2023-06-10T11:37:44;13.23;;;5.90;;
3297;SDS011;1661;53.572;10.174;2023-06-10T11:40:11;8.40;;;6.47;;
3297;SDS011;1661;53.572;10.174;2023-06-10T11:42:39;8.90;;;6.27;;
3297;SDS011;1661;53.572;10.174;2023-06-10T11:45:08;7.63;;;5.23;;
3297;SDS011;1661;53.572;10.174;2023-06-10T11:47:35;13.37;;;5.80;;
3297;SDS011;1661;53.572;10.174;2023-06-10T11:50:02;12.27;;;6.23;;
3297;SDS011;1661;53.572;10.174;2023-06-10T11:52:30;7.63;;;5.17;;
3297;SDS011;1661;53.572;10.174;2023-06-10T11:54:58;10.40;;;5.90;;
3297;SDS011;1661;53.572;10.174;2023-06-10T11:57:25;7.07;;;5.20;;
3297;SDS011;1661;53.572;10.174;2023-06-10T11:59:52;7.03;;;6.33;;
3297;SDS011;1661;53.572;10.174;2023-06-10T12:02:20;8.07;;;5.30;;
3297;SDS011;1661;53.572;10.174;2023-06-10T12:04:47;10.63;;;6.50;;
3297;SDS011;1661;53.572;10.174;2023-06-10T12:07:17;10.80;;;6.03;;
3297;SDS011;1661;53.572;10.174;2023-06-10T12:09:46;7.53;;;5.60;;
3297;SDS011;1661;53.572;10.174;2023-06-10T12:12:13;8.90;;;5.97;;
3297;SDS011;1661;53.572;10.174;2023-06-10T12:14:53;9.40;;;6.27;;
3297;SDS011;1661;53.572;10.174;2023-06-10T12:17:23;8.07;;;5.73;;
3297;SDS011;1661;53.572;10.174;2023-06-10T12:20:02;8.03;;;5.90;;
3297;SDS011;1661;53.572;10.174;2023-06-10T12:22:35;7.10;;;6.07;;
3297;SDS011;1661;53.572;10.174;2023-06-10T12:25:03;8.03;;;6.17;;
3297;SDS011;1661;53.572;10.174;2023-06-10T12:27:32;12.67;;;6.40;;
3297;SDS011;1661;53.572;10.174;2023-06-10T12:30:00;7.53;;;6.10;;
3297;SDS011;1661;53.572;10.174;2023-06-10T12:32:37;9.70;;;5.90;;
3297;SDS011;1661;53.572;10.174;2023-06-10T12:35:06;7.83;;;5.30;;
3297;SDS011;1661;53.572;10.174;2023-06-10T12:37:34;12.40;;;5.67;;
3297;SDS011;1661;53.572;10.174;2023-06-10T12:40:02;9.90;;;6.00;;
3297;SDS011;1661;53.572;10.174;2023-06-10T12:42:31;8.13;;;5.87;;
3297;SDS011;1661;53.572;10.174;2023-06-10T12:44:59;8.80;;;6.07;;
3297;SDS011;1661;53.572;10.174;2023-06-10T12:47:29;7.47;;;5.13;;
3297;SDS011;1661;53.572;10.174;2023-06-10T12:49:59;7.37;;;4.77;;
3297;SDS011;1661;53.572;10.174;2023-06-10T12:52:25;6.07;;;5.47;;
3297;SDS011;1661;53.572;10.174;2023-06-10T12:54:52;9.20;;;5.30;;
3297;SDS011;1661;53.572;10.174;2023-06-10T12:57:19;7.57;;;5.13;;
3297;SDS011;1661;53.572;10.174;2023-06-10T12:59:46;10.10;;;6.60;;
3297;SDS011;1661;53.572;10.174;2023-06-10T13:02:17;5.47;;;4.60;;
3297;SDS011;1661;53.572;10.174;2023-06-10T13:04:44;14.07;;;5.60;;
3297;SDS011;1661;53.572;10.174;2023-06-10T13:07:13;11.23;;;5.30;;
3297;SDS011;1661;53.572;10.174;2023-06-10T13:09:39;10.53;;;5.50;;
3297;SDS011;1661;53.572;10.174;2023-06-10T13:12:07;5.83;;;5.33;;
3297;SDS011;1661;53.572;10.174;2023-06-10T13:14:34;8.17;;;5.33;;
3297;SDS011;1661;53.572;10.174;2023-06-10T13:17:02;9.70;;;5.93;;
3297;SDS011;1661;53.572;10.174;2023-06-10T13:19:30;13.20;;;7.80;;
3297;SDS011;1661;53.572;10.174;2023-06-10T13:21:57;10.43;;;5.83;;
3297;SDS011;1661;53.572;10.174;2023-06-10T13:24:26;7.83;;;4.40;;
3297;SDS011;1661;53.572;10.174;2023-06-10T13:26:53;6.87;;;4.97;;
3297;SDS011;1661;53.572;10.174;2023-06-10T13:29:21;8.37;;;5.53;;
3297;SDS011;1661;53.572;10.174;2023-06-10T13:31:48;8.90;;;4.43;;
3297;SDS011;1661;53.572;10.174;2023-06-10T13:34:15;9.57;;;5.07;;
3297;SDS011;1661;53.572;10.174;2023-06-10T13:36:41;8.33;;;4.80;;
3297;SDS011;1661;53.572;10.174;2023-06-10T13:39:08;10.43;;;4.17;;
3297;SDS011;1661;53.572;10.174;2023-06-10T13:41:36;6.23;;;4.13;;
3297;SDS011;1661;53.572;10.174;2023-06-10T13:44:03;7.40;;;4.73;;
3297;SDS011;1661;53.572;10.174;2023-06-10T13:46:30;9.97;;;4.67;;
3297;SDS011;1661;53.572;10.174;2023-06-10T13:48:56;9.03;;;5.03;;
3297;SDS011;1661;53.572;10.174;2023-06-10T13:51:23;5.97;;;4.80;;
3297;SDS011;1661;53.572;10.174;2023-06-10T13:53:50;11.33;;;4.77;;
3297;SDS011;1661;53.572;10.174;2023-06-10T13:56:17;11.43;;;5.33;;
3297;SDS011;1661;53.572;10.174;2023-06-10T13:58:46;7.17;;;4.87;;
3297;SDS011;1661;53.572;10.174;2023-06-10T14:01:12;8.50;;;4.30;;
3297;SDS011;1661;53.572;10.174;2023-06-10T14:03:39;10.20;;;5.00;;
3297;SDS011;1661;53.572;10.174;2023-06-10T14:06:06;10.10;;;4.03;;
3297;SDS011;1661;53.572;10.174;2023-06-10T14:08:33;6.97;;;3.70;;
3297;SDS011;1661;53.572;10.174;2023-06-10T14:10:59;10.80;;;4.30;;
3297;SDS011;1661;53.572;10.174;2023-06-10T14:13:26;8.30;;;4.70;;
3297;SDS011;1661;53.572;10.174;2023-06-10T14:15:55;8.60;;;4.60;;
3297;SDS011;1661;53.572;10.174;2023-06-10T14:18:22;13.27;;;4.60;;
3297;SDS011;1661;53.572;10.174;2023-06-10T14:20:49;9.13;;;4.43;;
3297;SDS011;1661;53.572;10.174;2023-06-10T14:23:16;6.73;;;4.20;;
3297;SDS011;1661;53.572;10.174;2023-06-10T14:25:43;14.00;;;4.20;;
3297;SDS011;1661;53.572;10.174;2023-06-10T14:28:09;7.60;;;4.80;;
3297;SDS011;1661;53.572;10.174;2023-06-10T14:30:36;6.90;;;3.70;;
3297;SDS011;1661;53.572;10.174;2023-06-10T14:33:04;7.20;;;4.50;;
3297;SDS011;1661;53.572;10.174;2023-06-10T14:35:31;17.03;;;4.70;;
3297;SDS011;1661;53.572;10.174;2023-06-10T14:37:58;11.27;;;3.87;;
3297;SDS011;1661;53.572;10.174;2023-06-10T14:40:25;12.77;;;4.70;;
3297;SDS011;1661;53.572;10.174;2023-06-10T14:42:54;8.90;;;4.57;;
3297;SDS011;1661;53.572;10.174;2023-06-10T14:45:20;9.90;;;5.00;;
3297;SDS011;1661;53.572;10.174;2023-06-10T14:47:47;5.00;;;4.40;;
3297;SDS011;1661;53.572;10.174;2023-06-10T14:50:16;14.70;;;4.40;;
3297;SDS011;1661;53.572;10.174;2023-06-10T14:52:43;5.80;;;4.70;;
3297;SDS011;1661;53.572;10.174;2023-06-10T14:55:09;10.83;;;4.53;;
3297;SDS011;1661;53.572;10.174;2023-06-10T14:57:36;11.17;;;4.57;;
3297;SDS011;1661;53.572;10.174;2023-06-10T15:00:03;10.97;;;4.67;;
3297;SDS011;1661;53.572;10.174;2023-06-10T15:02:31;25.60;;;5.20;;
3297;SDS011;1661;53.572;10.174;2023-06-10T15:04:58;10.20;;;4.27;;